sim
Sign-in with your pilot id or email,
or register
Callsign
Passwort

Schedule Details

Flight Number: RYR7892 (1)
Departure: Edinburgh Airport (EGPH) at 17:30
Arrival: Gothenburg Landvetter Airport (ESGG) at 19:20
Route: Ryanair Passenger Schedule. Enter filed route here before submitting Pirep.

Weather Information
Getting current METAR information for EGPH 200250Z 08004KT 050V110 9999 -RA NSC 10/09 Q0997
Getting current METAR information for ESGG 200250Z 14010KT 9999 SCT038 04/03 Q1015

Schedule Frequency

Route Map